sensor_id;sensor_type;location;lat;lon;timestamp;P1;durP1;ratioP1;P2;durP2;ratioP2
60239;SDS011;46102;39.012;-7.064;2022-10-17T00:00:20;7.38;;;2.75;;
60239;SDS011;46102;39.012;-7.064;2022-10-17T00:02:21;10.60;;;2.40;;
60239;SDS011;46102;39.012;-7.064;2022-10-17T00:04:22;4.07;;;2.30;;
60239;SDS011;46102;39.012;-7.064;2022-10-17T00:06:23;2.65;;;2.10;;
60239;SDS011;46102;39.012;-7.064;2022-10-17T00:08:24;6.28;;;2.83;;
60239;SDS011;46102;39.012;-7.064;2022-10-17T00:10:24;10.40;;;3.33;;
60239;SDS011;46102;39.012;-7.064;2022-10-17T00:12:25;8.60;;;3.10;;
60239;SDS011;46102;39.012;-7.064;2022-10-17T00:14:26;10.75;;;2.65;;
60239;SDS011;46102;39.012;-7.064;2022-10-17T00:16:28;16.13;;;5.97;;
60239;SDS011;46102;39.012;-7.064;2022-10-17T00:18:31;7.88;;;3.05;;
60239;SDS011;46102;39.012;-7.064;2022-10-17T00:20:33;7.00;;;3.05;;
60239;SDS011;46102;39.012;-7.064;2022-10-17T00:22:35;4.32;;;2.10;;
60239;SDS011;46102;39.012;-7.064;2022-10-17T00:24:35;5.85;;;2.63;;
60239;SDS011;46102;39.012;-7.064;2022-10-17T00:26:36;9.20;;;2.58;;
60239;SDS011;46102;39.012;-7.064;2022-10-17T00:28:37;6.00;;;1.98;;
60239;SDS011;46102;39.012;-7.064;2022-10-17T00:30:38;5.65;;;2.30;;
60239;SDS011;46102;39.012;-7.064;2022-10-17T00:32:40;6.68;;;3.08;;
60239;SDS011;46102;39.012;-7.064;2022-10-17T00:34:41;9.30;;;2.75;;
60239;SDS011;46102;39.012;-7.064;2022-10-17T00:36:42;4.45;;;2.35;;
60239;SDS011;46102;39.012;-7.064;2022-10-17T00:38:43;9.07;;;2.97;;
60239;SDS011;46102;39.012;-7.064;2022-10-17T00:40:45;8.70;;;2.72;;
60239;SDS011;46102;39.012;-7.064;2022-10-17T00:42:49;5.82;;;2.83;;
60239;SDS011;46102;39.012;-7.064;2022-10-17T00:44:59;11.50;;;2.70;;
60239;SDS011;46102;39.012;-7.064;2022-10-17T00:47:22;7.75;;;2.00;;
60239;SDS011;46102;39.012;-7.064;2022-10-17T00:49:23;14.63;;;2.63;;
60239;SDS011;46102;39.012;-7.064;2022-10-17T00:51:29;5.10;;;2.08;;
60239;SDS011;46102;39.012;-7.064;2022-10-17T00:53:36;5.47;;;2.85;;
60239;SDS011;46102;39.012;-7.064;2022-10-17T00:55:44;11.52;;;2.65;;
60239;SDS011;46102;39.012;-7.064;2022-10-17T00:57:49;9.50;;;2.72;;
60239;SDS011;46102;39.012;-7.064;2022-10-17T00:59:53;9.43;;;2.50;;
60239;SDS011;46102;39.012;-7.064;2022-10-17T01:02:01;3.55;;;2.08;;
60239;SDS011;46102;39.012;-7.064;2022-10-17T01:04:04;10.15;;;3.35;;
60239;SDS011;46102;39.012;-7.064;2022-10-17T01:06:05;8.02;;;3.05;;
60239;SDS011;46102;39.012;-7.064;2022-10-17T01:08:06;8.13;;;3.33;;
60239;SDS011;46102;39.012;-7.064;2022-10-17T01:10:07;6.15;;;2.72;;
60239;SDS011;46102;39.012;-7.064;2022-10-17T01:12:12;9.00;;;2.53;;
60239;SDS011;46102;39.012;-7.064;2022-10-17T01:14:21;4.70;;;2.03;;
60239;SDS011;46102;39.012;-7.064;2022-10-17T01:19:02;6.95;;;2.58;;
60239;SDS011;46102;39.012;-7.064;2022-10-17T01:21:24;9.50;;;2.53;;
60239;SDS011;46102;39.012;-7.064;2022-10-17T01:25:59;9.50;;;3.03;;
60239;SDS011;46102;39.012;-7.064;2022-10-17T01:28:17;11.55;;;3.30;;
60239;SDS011;46102;39.012;-7.064;2022-10-17T01:30:51;4.38;;;2.53;;
60239;SDS011;46102;39.012;-7.064;2022-10-17T01:33:02;6.75;;;3.72;;
60239;SDS011;46102;39.012;-7.064;2022-10-17T01:35:26;9.02;;;2.97;;
60239;SDS011;46102;39.012;-7.064;2022-10-17T01:37:42;5.75;;;2.40;;
60239;SDS011;46102;39.012;-7.064;2022-10-17T01:39:52;3.33;;;3.03;;
60239;SDS011;46102;39.012;-7.064;2022-10-17T01:42:01;6.72;;;2.53;;
60239;SDS011;46102;39.012;-7.064;2022-10-17T01:46:34;5.75;;;2.13;;
60239;SDS011;46102;39.012;-7.064;2022-10-17T01:48:37;7.53;;;2.27;;
60239;SDS011;46102;39.012;-7.064;2022-10-17T01:50:44;10.95;;;2.40;;
60239;SDS011;46102;39.012;-7.064;2022-10-17T01:52:51;5.47;;;2.92;;
60239;SDS011;46102;39.012;-7.064;2022-10-17T01:54:57;11.52;;;2.83;;
60239;SDS011;46102;39.012;-7.064;2022-10-17T01:57:06;7.75;;;2.85;;
60239;SDS011;46102;39.012;-7.064;2022-10-17T01:59:13;10.95;;;2.38;;
60239;SDS011;46102;39.012;-7.064;2022-10-17T02:01:17;7.60;;;2.95;;
60239;SDS011;46102;39.012;-7.064;2022-10-17T02:03:20;6.40;;;2.33;;
60239;SDS011;46102;39.012;-7.064;2022-10-17T02:05:23;9.98;;;2.50;;
60239;SDS011;46102;39.012;-7.064;2022-10-17T02:07:27;6.70;;;2.53;;
60239;SDS011;46102;39.012;-7.064;2022-10-17T02:09:27;9.77;;;2.08;;
60239;SDS011;46102;39.012;-7.064;2022-10-17T02:11:31;10.47;;;2.80;;
60239;SDS011;46102;39.012;-7.064;2022-10-17T02:18:21;6.15;;;1.80;;
60239;SDS011;46102;39.012;-7.064;2022-10-17T02:20:31;8.63;;;2.78;;
60239;SDS011;46102;39.012;-7.064;2022-10-17T02:29:53;4.53;;;2.22;;
60239;SDS011;46102;39.012;-7.064;2022-10-17T02:32:09;3.80;;;2.17;;
60239;SDS011;46102;39.012;-7.064;2022-10-17T02:34:21;5.00;;;2.53;;
60239;SDS011;46102;39.012;-7.064;2022-10-17T02:36:31;8.38;;;2.78;;
60239;SDS011;46102;39.012;-7.064;2022-10-17T02:38:38;7.70;;;1.98;;
60239;SDS011;46102;39.012;-7.064;2022-10-17T02:40:41;13.20;;;2.58;;
60239;SDS011;46102;39.012;-7.064;2022-10-17T02:42:43;4.50;;;2.58;;
60239;SDS011;46102;39.012;-7.064;2022-10-17T02:44:45;5.78;;;2.00;;
60239;SDS011;46102;39.012;-7.064;2022-10-17T02:46:51;6.43;;;2.30;;
60239;SDS011;46102;39.012;-7.064;2022-10-17T02:49:00;10.88;;;2.40;;
60239;SDS011;46102;39.012;-7.064;2022-10-17T02:53:24;4.85;;;2.50;;
60239;SDS011;46102;39.012;-7.064;2022-10-17T02:55:35;8.93;;;2.28;;
60239;SDS011;46102;39.012;-7.064;2022-10-17T02:57:41;4.93;;;2.42;;
60239;SDS011;46102;39.012;-7.064;2022-10-17T02:59:47;12.15;;;2.47;;
60239;SDS011;46102;39.012;-7.064;2022-10-17T03:01:50;7.25;;;3.40;;
60239;SDS011;46102;39.012;-7.064;2022-10-17T03:04:02;8.93;;;2.28;;
60239;SDS011;46102;39.012;-7.064;2022-10-17T03:06:06;7.35;;;2.80;;
60239;SDS011;46102;39.012;-7.064;2022-10-17T03:08:07;6.32;;;2.30;;
60239;SDS011;46102;39.012;-7.064;2022-10-17T03:10:08;9.93;;;2.53;;
60239;SDS011;46102;39.012;-7.064;2022-10-17T03:12:09;4.95;;;2.40;;
60239;SDS011;46102;39.012;-7.064;2022-10-17T03:14:10;12.48;;;2.65;;
60239;SDS011;46102;39.012;-7.064;2022-10-17T03:16:11;6.50;;;1.75;;
60239;SDS011;46102;39.012;-7.064;2022-10-17T03:18:12;6.57;;;2.30;;
60239;SDS011;46102;39.012;-7.064;2022-10-17T03:20:13;9.65;;;2.75;;
60239;SDS011;46102;39.012;-7.064;2022-10-17T03:22:14;9.55;;;2.80;;
60239;SDS011;46102;39.012;-7.064;2022-10-17T03:24:17;7.80;;;2.60;;
60239;SDS011;46102;39.012;-7.064;2022-10-17T03:26:18;4.72;;;2.35;;
60239;SDS011;46102;39.012;-7.064;2022-10-17T03:28:19;7.93;;;2.63;;
60239;SDS011;46102;39.012;-7.064;2022-10-17T03:30:19;8.20;;;2.45;;
60239;SDS011;46102;39.012;-7.064;2022-10-17T03:32:20;3.55;;;1.88;;
60239;SDS011;46102;39.012;-7.064;2022-10-17T03:34:21;7.57;;;2.25;;
60239;SDS011;46102;39.012;-7.064;2022-10-17T03:36:22;11.48;;;2.25;;
60239;SDS011;46102;39.012;-7.064;2022-10-17T03:38:23;5.93;;;2.25;;
60239;SDS011;46102;39.012;-7.064;2022-10-17T03:40:25;8.75;;;2.28;;
60239;SDS011;46102;39.012;-7.064;2022-10-17T03:42:27;4.13;;;2.00;;
60239;SDS011;46102;39.012;-7.064;2022-10-17T03:44:28;9.73;;;3.03;;
60239;SDS011;46102;39.012;-7.064;2022-10-17T03:46:29;6.20;;;2.20;;
60239;SDS011;46102;39.012;-7.064;2022-10-17T03:48:32;5.82;;;2.00;;
60239;SDS011;46102;39.012;-7.064;2022-10-17T03:50:33;10.40;;;2.97;;
60239;SDS011;46102;39.012;-7.064;2022-10-17T03:52:34;7.00;;;2.38;;
60239;SDS011;46102;39.012;-7.064;2022-10-17T03:54:36;8.98;;;2.22;;
60239;SDS011;46102;39.012;-7.064;2022-10-17T03:56:37;7.28;;;2.00;;
60239;SDS011;46102;39.012;-7.064;2022-10-17T03:58:41;4.47;;;1.60;;
60239;SDS011;46102;39.012;-7.064;2022-10-17T04:00:43;4.70;;;2.65;;
60239;SDS011;46102;39.012;-7.064;2022-10-17T04:02:44;6.50;;;2.22;;
60239;SDS011;46102;39.012;-7.064;2022-10-17T04:04:51;6.25;;;2.00;;
60239;SDS011;46102;39.012;-7.064;2022-10-17T04:06:52;7.68;;;2.53;;
60239;SDS011;46102;39.012;-7.064;2022-10-17T04:08:53;7.05;;;2.72;;
60239;SDS011;46102;39.012;-7.064;2022-10-17T04:10:58;6.97;;;2.17;;
60239;SDS011;46102;39.012;-7.064;2022-10-17T04:13:00;3.90;;;2.20;;
60239;SDS011;46102;39.012;-7.064;2022-10-17T04:15:01;5.93;;;2.17;;
60239;SDS011;46102;39.012;-7.064;2022-10-17T04:17:02;6.53;;;2.47;;
60239;SDS011;46102;39.012;-7.064;2022-10-17T04:19:04;7.03;;;3.25;;
60239;SDS011;46102;39.012;-7.064;2022-10-17T04:21:12;6.05;;;2.35;;
60239;SDS011;46102;39.012;-7.064;2022-10-17T04:23:13;7.00;;;2.33;;
60239;SDS011;46102;39.012;-7.064;2022-10-17T04:25:18;7.35;;;2.35;;
60239;SDS011;46102;39.012;-7.064;2022-10-17T04:27:21;14.50;;;2.55;;
60239;SDS011;46102;39.012;-7.064;2022-10-17T04:29:23;8.15;;;2.00;;
60239;SDS011;46102;39.012;-7.064;2022-10-17T04:31:27;7.20;;;2.50;;
60239;SDS011;46102;39.012;-7.064;2022-10-17T04:33:40;4.05;;;2.30;;
60239;SDS011;46102;39.012;-7.064;2022-10-17T04:35:41;3.33;;;2.10;;
60239;SDS011;46102;39.012;-7.064;2022-10-17T04:37:42;7.55;;;3.55;;
60239;SDS011;46102;39.012;-7.064;2022-10-17T04:39:49;6.75;;;2.60;;
60239;SDS011;46102;39.012;-7.064;2022-10-17T04:41:50;6.53;;;2.45;;
60239;SDS011;46102;39.012;-7.064;2022-10-17T04:43:51;15.63;;;2.17;;
60239;SDS011;46102;39.012;-7.064;2022-10-17T04:45:53;7.78;;;2.33;;
60239;SDS011;46102;39.012;-7.064;2022-10-17T04:47:57;11.45;;;3.10;;
60239;SDS011;46102;39.012;-7.064;2022-10-17T04:49:57;9.00;;;2.70;;
60239;SDS011;46102;39.012;-7.064;2022-10-17T04:51:58;13.80;;;3.47;;
60239;SDS011;46102;39.012;-7.064;2022-10-17T04:54:04;7.05;;;2.70;;
60239;SDS011;46102;39.012;-7.064;2022-10-17T04:56:10;7.57;;;3.30;;
60239;SDS011;46102;39.012;-7.064;2022-10-17T04:58:13;12.95;;;3.83;;
60239;SDS011;46102;39.012;-7.064;2022-10-17T05:00:14;16.77;;;3.90;;
60239;SDS011;46102;39.012;-7.064;2022-10-17T05:02:25;18.20;;;4.47;;
60239;SDS011;46102;39.012;-7.064;2022-10-17T05:04:26;10.15;;;3.28;;
60239;SDS011;46102;39.012;-7.064;2022-10-17T05:06:27;17.80;;;3.90;;
60239;SDS011;46102;39.012;-7.064;2022-10-17T05:08:45;12.00;;;3.60;;
60239;SDS011;46102;39.012;-7.064;2022-10-17T05:10:46;11.77;;;3.00;;
60239;SDS011;46102;39.012;-7.064;2022-10-17T05:12:47;8.68;;;2.58;;
60239;SDS011;46102;39.012;-7.064;2022-10-17T05:14:51;17.73;;;3.70;;
60239;SDS011;46102;39.012;-7.064;2022-10-17T05:16:52;11.07;;;3.92;;
60239;SDS011;46102;39.012;-7.064;2022-10-17T05:18:54;9.70;;;3.42;;
60239;SDS011;46102;39.012;-7.064;2022-10-17T05:20:56;8.13;;;3.22;;
60239;SDS011;46102;39.012;-7.064;2022-10-17T05:22:58;6.25;;;2.92;;
60239;SDS011;46102;39.012;-7.064;2022-10-17T05:25:02;9.85;;;3.42;;
60239;SDS011;46102;39.012;-7.064;2022-10-17T05:27:03;5.50;;;3.40;;
60239;SDS011;46102;39.012;-7.064;2022-10-17T05:29:04;6.25;;;3.63;;
60239;SDS011;46102;39.012;-7.064;2022-10-17T05:31:09;5.82;;;3.22;;
60239;SDS011;46102;39.012;-7.064;2022-10-17T05:33:10;7.43;;;3.13;;
60239;SDS011;46102;39.012;-7.064;2022-10-17T05:35:11;9.98;;;4.50;;
60239;SDS011;46102;39.012;-7.064;2022-10-17T05:37:12;9.43;;;3.95;;
60239;SDS011;46102;39.012;-7.064;2022-10-17T05:39:16;8.23;;;3.17;;
60239;SDS011;46102;39.012;-7.064;2022-10-17T05:41:19;22.10;;;4.38;;
60239;SDS011;46102;39.012;-7.064;2022-10-17T05:43:20;9.68;;;3.20;;
60239;SDS011;46102;39.012;-7.064;2022-10-17T05:45:21;12.88;;;3.72;;
60239;SDS011;46102;39.012;-7.064;2022-10-17T05:47:22;9.90;;;3.78;;
60239;SDS011;46102;39.012;-7.064;2022-10-17T05:49:23;7.43;;;3.40;;
60239;SDS011;46102;39.012;-7.064;2022-10-17T05:51:24;3.85;;;2.83;;
60239;SDS011;46102;39.012;-7.064;2022-10-17T05:53:25;7.55;;;3.13;;
60239;SDS011;46102;39.012;-7.064;2022-10-17T05:55:29;8.55;;;3.35;;
60239;SDS011;46102;39.012;-7.064;2022-10-17T05:57:31;7.60;;;3.10;;
60239;SDS011;46102;39.012;-7.064;2022-10-17T05:59:33;7.63;;;3.53;;
60239;SDS011;46102;39.012;-7.064;2022-10-17T06:01:44;6.88;;;3.22;;
60239;SDS011;46102;39.012;-7.064;2022-10-17T06:03:44;12.13;;;3.58;;
60239;SDS011;46102;39.012;-7.064;2022-10-17T06:05:45;13.82;;;4.15;;
60239;SDS011;46102;39.012;-7.064;2022-10-17T06:07:46;19.83;;;3.75;;
60239;SDS011;46102;39.012;-7.064;2022-10-17T06:09:50;11.90;;;4.38;;
60239;SDS011;46102;39.012;-7.064;2022-10-17T06:11:51;11.07;;;3.83;;
60239;SDS011;46102;39.012;-7.064;2022-10-17T06:13:51;24.13;;;6.20;;
60239;SDS011;46102;39.012;-7.064;2022-10-17T06:15:57;15.70;;;4.20;;
60239;SDS011;46102;39.012;-7.064;2022-10-17T06:17:58;12.57;;;4.05;;
60239;SDS011;46102;39.012;-7.064;2022-10-17T06:19:59;16.52;;;4.55;;
60239;SDS011;46102;39.012;-7.064;2022-10-17T06:21:59;19.35;;;5.28;;
60239;SDS011;46102;39.012;-7.064;2022-10-17T06:24:01;10.82;;;3.80;;
60239;SDS011;46102;39.012;-7.064;2022-10-17T06:28:07;10.98;;;4.25;;
60239;SDS011;46102;39.012;-7.064;2022-10-17T06:30:08;13.70;;;4.63;;
60239;SDS011;46102;39.012;-7.064;2022-10-17T06:32:09;16.63;;;3.88;;
60239;SDS011;46102;39.012;-7.064;2022-10-17T06:34:09;12.23;;;4.68;;
60239;SDS011;46102;39.012;-7.064;2022-10-17T06:36:12;24.15;;;5.85;;
60239;SDS011;46102;39.012;-7.064;2022-10-17T06:38:14;10.43;;;4.10;;
60239;SDS011;46102;39.012;-7.064;2022-10-17T06:40:15;13.35;;;5.43;;
60239;SDS011;46102;39.012;-7.064;2022-10-17T06:42:16;18.65;;;5.03;;
60239;SDS011;46102;39.012;-7.064;2022-10-17T06:44:21;14.13;;;4.78;;
60239;SDS011;46102;39.012;-7.064;2022-10-17T06:46:42;23.25;;;5.00;;
60239;SDS011;46102;39.012;-7.064;2022-10-17T06:48:43;21.35;;;5.32;;
60239;SDS011;46102;39.012;-7.064;2022-10-17T06:51:01;17.58;;;5.25;;
60239;SDS011;46102;39.012;-7.064;2022-10-17T06:53:03;16.63;;;5.45;;
60239;SDS011;46102;39.012;-7.064;2022-10-17T06:55:23;13.77;;;5.15;;
60239;SDS011;46102;39.012;-7.064;2022-10-17T06:57:43;12.82;;;3.97;;
60239;SDS011;46102;39.012;-7.064;2022-10-17T06:59:59;15.43;;;4.10;;
60239;SDS011;46102;39.012;-7.064;2022-10-17T07:02:08;5.25;;;3.85;;
60239;SDS011;46102;39.012;-7.064;2022-10-17T07:04:10;6.93;;;3.38;;
60239;SDS011;46102;39.012;-7.064;2022-10-17T07:06:11;5.53;;;4.03;;
60239;SDS011;46102;39.012;-7.064;2022-10-17T07:08:14;8.07;;;3.40;;
60239;SDS011;46102;39.012;-7.064;2022-10-17T07:10:16;9.25;;;3.67;;
60239;SDS011;46102;39.012;-7.064;2022-10-17T07:12:17;15.13;;;4.65;;
60239;SDS011;46102;39.012;-7.064;2022-10-17T07:14:18;15.50;;;4.80;;
60239;SDS011;46102;39.012;-7.064;2022-10-17T07:16:20;12.05;;;4.68;;
60239;SDS011;46102;39.012;-7.064;2022-10-17T07:18:25;8.07;;;4.13;;
60239;SDS011;46102;39.012;-7.064;2022-10-17T07:20:26;10.32;;;5.15;;
60239;SDS011;46102;39.012;-7.064;2022-10-17T07:22:26;19.80;;;6.45;;
60239;SDS011;46102;39.012;-7.064;2022-10-17T07:24:30;7.38;;;4.93;;
60239;SDS011;46102;39.012;-7.064;2022-10-17T07:26:40;12.02;;;4.90;;
60239;SDS011;46102;39.012;-7.064;2022-10-17T07:28:42;15.43;;;5.40;;
60239;SDS011;46102;39.012;-7.064;2022-10-17T07:31:07;16.67;;;5.03;;
60239;SDS011;46102;39.012;-7.064;2022-10-17T07:33:10;13.05;;;4.80;;
60239;SDS011;46102;39.012;-7.064;2022-10-17T07:35:11;10.48;;;4.13;;
60239;SDS011;46102;39.012;-7.064;2022-10-17T07:37:13;15.93;;;4.85;;
60239;SDS011;46102;39.012;-7.064;2022-10-17T07:39:20;11.18;;;5.15;;
60239;SDS011;46102;39.012;-7.064;2022-10-17T07:41:21;18.48;;;5.28;;
60239;SDS011;46102;39.012;-7.064;2022-10-17T07:43:23;16.50;;;5.35;;
60239;SDS011;46102;39.012;-7.064;2022-10-17T07:47:28;18.90;;;6.03;;
60239;SDS011;46102;39.012;-7.064;2022-10-17T07:49:30;14.10;;;5.05;;
60239;SDS011;46102;39.012;-7.064;2022-10-17T07:51:31;17.70;;;6.90;;
60239;SDS011;46102;39.012;-7.064;2022-10-17T07:53:33;13.90;;;6.13;;
60239;SDS011;46102;39.012;-7.064;2022-10-17T07:55:37;24.23;;;6.25;;
60239;SDS011;46102;39.012;-7.064;2022-10-17T07:57:39;20.40;;;6.28;;
60239;SDS011;46102;39.012;-7.064;2022-10-17T07:59:40;9.65;;;5.18;;
60239;SDS011;46102;39.012;-7.064;2022-10-17T08:01:41;12.73;;;5.43;;
60239;SDS011;46102;39.012;-7.064;2022-10-17T08:03:42;7.97;;;4.68;;
60239;SDS011;46102;39.012;-7.064;2022-10-17T08:05:44;9.68;;;5.10;;
60239;SDS011;46102;39.012;-7.064;2022-10-17T08:07:45;12.43;;;7.80;;
60239;SDS011;46102;39.012;-7.064;2022-10-17T08:09:45;13.05;;;6.80;;
60239;SDS011;46102;39.012;-7.064;2022-10-17T08:11:46;17.67;;;6.28;;
60239;SDS011;46102;39.012;-7.064;2022-10-17T08:13:48;12.77;;;5.28;;
60239;SDS011;46102;39.012;-7.064;2022-10-17T08:15:48;12.13;;;6.07;;
60239;SDS011;46102;39.012;-7.064;2022-10-17T08:17:49;12.57;;;5.97;;
60239;SDS011;46102;39.012;-7.064;2022-10-17T08:19:50;17.90;;;5.90;;
60239;SDS011;46102;39.012;-7.064;2022-10-17T08:21:51;17.98;;;6.75;;
60239;SDS011;46102;39.012;-7.064;2022-10-17T08:23:53;12.35;;;5.97;;
60239;SDS011;46102;39.012;-7.064;2022-10-17T08:25:54;11.30;;;5.15;;
60239;SDS011;46102;39.012;-7.064;2022-10-17T08:27:58;12.85;;;5.75;;
60239;SDS011;46102;39.012;-7.064;2022-10-17T08:29:59;6.05;;;4.00;;
60239;SDS011;46102;39.012;-7.064;2022-10-17T08:32:00;14.00;;;4.18;;
60239;SDS011;46102;39.012;-7.064;2022-10-17T08:34:01;8.15;;;4.13;;
60239;SDS011;46102;39.012;-7.064;2022-10-17T08:36:02;14.30;;;5.00;;
60239;SDS011;46102;39.012;-7.064;2022-10-17T08:38:04;11.48;;;4.78;;
60239;SDS011;46102;39.012;-7.064;2022-10-17T08:40:06;11.18;;;4.75;;
60239;SDS011;46102;39.012;-7.064;2022-10-17T08:47:00;14.07;;;5.00;;
60239;SDS011;46102;39.012;-7.064;2022-10-17T08:49:05;17.40;;;4.50;;
60239;SDS011;46102;39.012;-7.064;2022-10-17T08:51:14;7.53;;;4.57;;
60239;SDS011;46102;39.012;-7.064;2022-10-17T08:53:37;13.85;;;5.25;;
60239;SDS011;46102;39.012;-7.064;2022-10-17T08:55:46;13.75;;;4.10;;
60239;SDS011;46102;39.012;-7.064;2022-10-17T08:57:48;16.00;;;4.32;;
60239;SDS011;46102;39.012;-7.064;2022-10-17T08:59:49;13.50;;;4.00;;
60239;SDS011;46102;39.012;-7.064;2022-10-17T09:04:37;20.95;;;4.00;;
60239;SDS011;46102;39.012;-7.064;2022-10-17T09:06:41;16.48;;;3.70;;
60239;SDS011;46102;39.012;-7.064;2022-10-17T09:13:36;16.60;;;4.75;;
60239;SDS011;46102;39.012;-7.064;2022-10-17T09:18:12;5.72;;;3.20;;
60239;SDS011;46102;39.012;-7.064;2022-10-17T09:20:29;4.90;;;2.93;;
60239;SDS011;46102;39.012;-7.064;2022-10-17T09:22:40;9.80;;;3.45;;
60239;SDS011;46102;39.012;-7.064;2022-10-17T09:26:55;24.92;;;3.15;;
60239;SDS011;46102;39.012;-7.064;2022-10-17T09:28:56;12.57;;;4.00;;
60239;SDS011;46102;39.012;-7.064;2022-10-17T09:31:00;17.38;;;4.45;;
60239;SDS011;46102;39.012;-7.064;2022-10-17T09:33:08;10.55;;;3.42;;
60239;SDS011;46102;39.012;-7.064;2022-10-17T09:35:13;8.63;;;3.35;;
60239;SDS011;46102;39.012;-7.064;2022-10-17T09:37:15;6.80;;;3.42;;
60239;SDS011;46102;39.012;-7.064;2022-10-17T09:39:18;14.25;;;4.18;;
60239;SDS011;46102;39.012;-7.064;2022-10-17T09:41:23;14.27;;;3.60;;
60239;SDS011;46102;39.012;-7.064;2022-10-17T09:43:33;13.60;;;4.35;;
60239;SDS011;46102;39.012;-7.064;2022-10-17T09:45:35;12.38;;;3.47;;
60239;SDS011;46102;39.012;-7.064;2022-10-17T09:47:48;10.93;;;3.58;;
60239;SDS011;46102;39.012;-7.064;2022-10-17T09:49:52;20.67;;;3.83;;
60239;SDS011;46102;39.012;-7.064;2022-10-17T09:51:53;14.63;;;3.88;;
60239;SDS011;46102;39.012;-7.064;2022-10-17T09:53:59;23.13;;;4.38;;
60239;SDS011;46102;39.012;-7.064;2022-10-17T09:56:07;13.20;;;3.38;;
60239;SDS011;46102;39.012;-7.064;2022-10-17T09:58:11;17.20;;;3.53;;
60239;SDS011;46102;39.012;-7.064;2022-10-17T10:00:19;12.52;;;4.25;;
60239;SDS011;46102;39.012;-7.064;2022-10-17T10:02:22;16.63;;;4.72;;
60239;SDS011;46102;39.012;-7.064;2022-10-17T10:04:24;17.92;;;4.45;;
60239;SDS011;46102;39.012;-7.064;2022-10-17T10:06:26;25.35;;;4.10;;
60239;SDS011;46102;39.012;-7.064;2022-10-17T10:08:28;12.88;;;3.60;;
60239;SDS011;46102;39.012;-7.064;2022-10-17T10:10:30;9.85;;;3.72;;
60239;SDS011;46102;39.012;-7.064;2022-10-17T10:12:33;13.18;;;4.78;;
60239;SDS011;46102;39.012;-7.064;2022-10-17T10:14:38;19.42;;;3.55;;
60239;SDS011;46102;39.012;-7.064;2022-10-17T10:16:40;11.10;;;3.85;;
60239;SDS011;46102;39.012;-7.064;2022-10-17T10:18:43;16.95;;;3.55;;
60239;SDS011;46102;39.012;-7.064;2022-10-17T10:20:45;14.77;;;3.72;;
60239;SDS011;46102;39.012;-7.064;2022-10-17T10:22:58;15.95;;;3.67;;
60239;SDS011;46102;39.012;-7.064;2022-10-17T10:25:11;17.70;;;4.07;;
60239;SDS011;46102;39.012;-7.064;2022-10-17T10:27:15;9.45;;;3.58;;
60239;SDS011;46102;39.012;-7.064;2022-10-17T10:29:19;12.73;;;2.95;;
60239;SDS011;46102;39.012;-7.064;2022-10-17T10:31:25;16.45;;;4.63;;
60239;SDS011;46102;39.012;-7.064;2022-10-17T10:33:28;13.00;;;3.53;;
60239;SDS011;46102;39.012;-7.064;2022-10-17T10:35:32;13.95;;;3.47;;
60239;SDS011;46102;39.012;-7.064;2022-10-17T10:37:38;26.88;;;3.78;;
60239;SDS011;46102;39.012;-7.064;2022-10-17T10:39:45;15.38;;;3.30;;
60239;SDS011;46102;39.012;-7.064;2022-10-17T10:41:49;18.50;;;4.22;;
60239;SDS011;46102;39.012;-7.064;2022-10-17T10:43:50;16.70;;;3.67;;
60239;SDS011;46102;39.012;-7.064;2022-10-17T10:45:52;11.68;;;3.67;;
60239;SDS011;46102;39.012;-7.064;2022-10-17T10:47:56;20.70;;;3.60;;
60239;SDS011;46102;39.012;-7.064;2022-10-17T10:54:33;16.02;;;3.70;;
60239;SDS011;46102;39.012;-7.064;2022-10-17T10:56:39;12.95;;;3.60;;
60239;SDS011;46102;39.012;-7.064;2022-10-17T10:58:57;21.95;;;3.45;;
60239;SDS011;46102;39.012;-7.064;2022-10-17T11:01:18;9.30;;;3.13;;
60239;SDS011;46102;39.012;-7.064;2022-10-17T11:03:30;17.23;;;3.47;;
60239;SDS011;46102;39.012;-7.064;2022-10-17T11:07:39;21.05;;;2.92;;
60239;SDS011;46102;39.012;-7.064;2022-10-17T11:12:11;12.65;;;3.10;;
60239;SDS011;46102;39.012;-7.064;2022-10-17T11:14:33;22.08;;;3.28;;
60239;SDS011;46102;39.012;-7.064;2022-10-17T11:16:46;6.15;;;2.63;;
60239;SDS011;46102;39.012;-7.064;2022-10-17T11:19:07;10.38;;;2.45;;
60239;SDS011;46102;39.012;-7.064;2022-10-17T11:25:51;16.55;;;2.80;;
60239;SDS011;46102;39.012;-7.064;2022-10-17T11:27:53;10.05;;;2.00;;
60239;SDS011;46102;39.012;-7.064;2022-10-17T11:29:54;10.18;;;2.47;;
60239;SDS011;46102;39.012;-7.064;2022-10-17T11:31:56;10.90;;;2.90;;
60239;SDS011;46102;39.012;-7.064;2022-10-17T11:34:06;23.83;;;2.78;;
60239;SDS011;46102;39.012;-7.064;2022-10-17T11:36:11;17.38;;;3.92;;
60239;SDS011;46102;39.012;-7.064;2022-10-17T11:40:35;10.45;;;3.10;;
60239;SDS011;46102;39.012;-7.064;2022-10-17T11:42:44;26.42;;;3.53;;
60239;SDS011;46102;39.012;-7.064;2022-10-17T11:44:58;33.58;;;3.20;;
60239;SDS011;46102;39.012;-7.064;2022-10-17T11:47:25;13.98;;;2.90;;
60239;SDS011;46102;39.012;-7.064;2022-10-17T11:49:51;12.95;;;3.05;;
60239;SDS011;46102;39.012;-7.064;2022-10-17T11:54:39;11.57;;;2.60;;
60239;SDS011;46102;39.012;-7.064;2022-10-17T11:57:01;9.85;;;2.28;;
60239;SDS011;46102;39.012;-7.064;2022-10-17T12:01:45;7.97;;;2.25;;
60239;SDS011;46102;39.012;-7.064;2022-10-17T12:06:42;14.15;;;2.22;;
60239;SDS011;46102;39.012;-7.064;2022-10-17T12:11:35;14.32;;;2.70;;
60239;SDS011;46102;39.012;-7.064;2022-10-17T12:13:45;11.55;;;2.00;;
60239;SDS011;46102;39.012;-7.064;2022-10-17T12:15:47;18.08;;;2.80;;
60239;SDS011;46102;39.012;-7.064;2022-10-17T12:22:23;18.42;;;2.75;;
60239;SDS011;46102;39.012;-7.064;2022-10-17T12:24:35;10.93;;;2.33;;
60239;SDS011;46102;39.012;-7.064;2022-10-17T12:26:43;13.15;;;2.30;;
60239;SDS011;46102;39.012;-7.064;2022-10-17T12:28:47;10.13;;;2.83;;
60239;SDS011;46102;39.012;-7.064;2022-10-17T12:30:52;14.30;;;2.90;;
60239;SDS011;46102;39.012;-7.064;2022-10-17T12:32:57;14.50;;;2.20;;
60239;SDS011;46102;39.012;-7.064;2022-10-17T12:34:59;8.10;;;2.28;;
60239;SDS011;46102;39.012;-7.064;2022-10-17T12:36:59;14.75;;;2.17;;
60239;SDS011;46102;39.012;-7.064;2022-10-17T12:41:01;15.50;;;3.25;;
60239;SDS011;46102;39.012;-7.064;2022-10-17T12:47:47;7.68;;;2.10;;
60239;SDS011;46102;39.012;-7.064;2022-10-17T12:49:49;10.63;;;2.75;;
60239;SDS011;46102;39.012;-7.064;2022-10-17T12:54:15;20.23;;;2.50;;
60239;SDS011;46102;39.012;-7.064;2022-10-17T12:56:17;10.40;;;2.20;;
60239;SDS011;46102;39.012;-7.064;2022-10-17T12:58:20;6.47;;;2.03;;
60239;SDS011;46102;39.012;-7.064;2022-10-17T13:00:22;16.70;;;2.25;;
60239;SDS011;46102;39.012;-7.064;2022-10-17T13:02:28;9.50;;;2.03;;
60239;SDS011;46102;39.012;-7.064;2022-10-17T13:04:30;9.02;;;2.00;;
60239;SDS011;46102;39.012;-7.064;2022-10-17T13:06:37;9.35;;;1.65;;
60239;SDS011;46102;39.012;-7.064;2022-10-17T13:08:44;12.90;;;2.33;;
60239;SDS011;46102;39.012;-7.064;2022-10-17T13:10:48;11.55;;;1.92;;
60239;SDS011;46102;39.012;-7.064;2022-10-17T13:13:04;8.25;;;2.40;;
60239;SDS011;46102;39.012;-7.064;2022-10-17T13:15:16;14.75;;;2.20;;
60239;SDS011;46102;39.012;-7.064;2022-10-17T13:17:24;14.35;;;2.50;;
60239;SDS011;46102;39.012;-7.064;2022-10-17T13:19:30;10.93;;;2.13;;
60239;SDS011;46102;39.012;-7.064;2022-10-17T13:21:55;13.20;;;1.88;;
60239;SDS011;46102;39.012;-7.064;2022-10-17T13:24:00;12.02;;;2.47;;
60239;SDS011;46102;39.012;-7.064;2022-10-17T13:28:17;22.08;;;3.08;;
60239;SDS011;46102;39.012;-7.064;2022-10-17T13:30:25;11.40;;;3.00;;
60239;SDS011;46102;39.012;-7.064;2022-10-17T13:32:35;13.60;;;2.65;;
60239;SDS011;46102;39.012;-7.064;2022-10-17T13:34:38;15.27;;;2.00;;
60239;SDS011;46102;39.012;-7.064;2022-10-17T13:36:39;11.43;;;2.35;;
60239;SDS011;46102;39.012;-7.064;2022-10-17T13:38:43;7.55;;;1.20;;
60239;SDS011;46102;39.012;-7.064;2022-10-17T13:40:44;23.98;;;2.30;;